Time;durP1;ratioP1;P1;durP2;ratioP2;P2;SDS_P1;SDS_P2;PMS_P1;PMS_P2;Temp;Humidity;BMP_temperature;BMP_pressure;BME280_temperature;BME280_humidity;BME280_pressure;Samples;Min_cycle;Max_cycle;Signal;HPM_P1;HPM_P2
2023/02/23 00:00:32;;;;;;;19.10;14.83;;;;;;;12.36;56.43;98434.22;7001907;28;20351;-82
2023/02/23 00:03:55;;;;;;;25.40;15.77;;;;;;;12.47;56.18;98432.63;7002954;28;20209;-82
2023/02/23 00:07:19;;;;;;;18.17;13.87;;;;;;;12.61;55.48;98434.94;7003014;28;20226;-81
2023/02/23 00:10:41;;;;;;;18.17;14.63;;;;;;;12.45;55.82;98440.13;7003653;28;20237;-82
2023/02/23 00:14:02;;;;;;;22.90;15.33;;;;;;;12.53;55.91;98437.13;7000511;28;20209;-82
2023/02/23 00:17:24;;;;;;;20.20;13.53;;;;;;;12.80;55.43;98435.75;6999232;28;20229;-82
2023/02/23 00:20:47;;;;;;;18.47;13.63;;;;;;;12.90;55.02;98441.41;7001755;28;20229;-83
2023/02/23 00:24:11;;;;;;;20.50;12.80;;;;;;;12.64;55.04;98414.72;7001328;28;20208;-83
2023/02/23 00:27:33;;;;;;;19.10;13.23;;;;;;;12.91;54.64;98421.41;7001357;28;20222;-83
2023/02/23 00:30:54;;;;;;;20.50;14.47;;;;;;;12.90;54.75;98433.31;7001559;28;20252;-82
2023/02/23 00:34:19;;;;;;;22.90;14.60;;;;;;;12.70;55.01;98425.44;7000946;28;20255;-83
2023/02/23 00:37:41;;;;;;;21.17;14.97;;;;;;;12.68;55.14;98430.28;7000146;28;20225;-83
2023/02/23 00:41:09;;;;;;;22.60;14.63;;;;;;;12.79;54.97;98426.78;7000075;28;20214;-82
2023/02/23 00:44:32;;;;;;;22.60;15.07;;;;;;;12.90;54.85;98420.63;7001137;28;20312;-83
2023/02/23 00:47:54;;;;;;;19.57;14.37;;;;;;;12.66;55.39;98426.13;6999069;28;20229;-83
2023/02/23 00:51:16;;;;;;;22.43;16.47;;;;;;;12.36;57.02;98423.41;6999862;28;20296;-83
2023/02/23 00:54:38;;;;;;;21.87;15.37;;;;;;;12.19;57.31;98407.97;6999679;28;20205;-83
2023/02/23 00:58:02;;;;;;;23.77;14.63;;;;;;;12.90;55.99;98422.47;6998791;28;20298;-79
2023/02/23 01:01:24;;;;;;;21.63;14.53;;;;;;;13.06;55.28;98422.72;6997882;28;20212;-81
2023/02/23 01:04:46;;;;;;;26.83;15.53;;;;;;;12.82;55.33;98420.94;6999369;28;20204;-81
2023/02/23 01:08:09;;;;;;;19.20;15.13;;;;;;;12.19;58.47;98414.22;6997917;28;20221;-80
2023/02/23 01:11:30;;;;;;;22.47;15.30;;;;;;;12.70;56.39;98424.63;6998485;28;20569;-81
2023/02/23 01:14:53;;;;;;;20.17;14.50;;;;;;;11.93;57.21;98343.44;6999118;28;20212;-81
2023/02/23 01:18:16;;;;;;;17.50;14.47;;;;;;;12.58;57.29;98426.44;6997520;28;20378;-81
2023/02/23 01:21:41;;;;;;;21.57;15.87;;;;;;;12.61;57.12;98425.97;6998187;28;20660;-82
2023/02/23 01:25:02;;;;;;;22.77;15.77;;;;;;;12.81;56.29;98421.97;6998552;28;20202;-82
2023/02/23 01:28:23;;;;;;;22.43;16.30;;;;;;;12.68;56.75;98424.84;6997139;28;20217;-81
2023/02/23 01:31:49;;;;;;;25.50;15.40;;;;;;;12.66;56.66;98397.22;6998077;28;20617;-82
2023/02/23 01:35:12;;;;;;;22.93;15.33;;;;;;;12.67;57.45;98414.25;6998188;28;20190;-82
2023/02/23 01:38:33;;;;;;;24.97;15.60;;;;;;;12.78;57.20;98410.78;6996413;28;20241;-81
2023/02/23 01:41:55;;;;;;;21.13;15.30;;;;;;;13.02;56.99;98416.09;7000265;28;20206;-81
2023/02/23 01:45:29;;;;;;;24.00;15.50;;;;;;;12.94;56.97;98410.16;7012746;28;20272;-80
2023/02/23 01:48:55;;;;;;;24.30;15.50;;;;;;;13.11;56.14;98414.72;7003661;28;20366;-81
2023/02/23 01:52:17;;;;;;;19.27;14.60;;;;;;;13.18;55.73;98410.06;7004957;28;20217;-81
2023/02/23 01:55:39;;;;;;;25.63;17.53;;;;;;;12.83;56.70;98395.53;7004381;28;20212;-81
2023/02/23 01:59:04;;;;;;;22.23;14.77;;;;;;;12.80;57.07;98406.81;7001881;28;20761;-81
2023/02/23 02:02:32;;;;;;;22.00;15.67;;;;;;;13.00;57.19;98401.16;7002454;28;20607;-81
2023/02/23 02:05:56;;;;;;;19.50;16.20;;;;;;;12.97;57.33;98409.72;7002175;28;20189;-80
2023/02/23 02:09:18;;;;;;;20.60;15.43;;;;;;;13.02;57.57;98412.56;7001192;28;20221;-81
2023/02/23 02:12:40;;;;;;;18.47;15.03;;;;;;;13.10;57.00;98404.94;7002340;28;20706;-82
2023/02/23 02:16:27;;;;;;;20.03;14.83;;;;;;;13.23;56.28;98391.19;7001077;28;20206;-81
2023/02/23 02:20:32;;;;;;;19.80;16.03;;;;;;;12.59;57.70;98404.59;6999134;28;20229;-81
2023/02/23 02:24:17;;;;;;;22.73;17.00;;;;;;;12.50;58.99;98378.06;6985633;28;20211;-81
2023/02/23 02:28:07;;;;;;;22.63;16.07;;;;;;;12.99;58.20;98391.38;7002852;28;20673;-81
2023/02/23 02:31:58;;;;;;;27.80;17.97;;;;;;;12.80;58.03;98392.47;7004366;28;20257;-81
2023/02/23 02:35:39;;;;;;;24.00;16.30;;;;;;;12.49;59.52;98389.94;7003559;28;20269;-81
2023/02/23 02:39:09;;;;;;;22.37;17.07;;;;;;;12.22;60.65;98394.84;7003341;28;20234;-80
2023/02/23 02:42:34;;;;;;;26.43;17.43;;;;;;;12.54;59.15;98322.50;7003118;28;20205;-80
2023/02/23 02:46:00;;;;;;;26.83;18.17;;;;;;;12.64;60.06;98387.69;7003275;28;20300;-80
2023/02/23 02:49:26;;;;;;;29.43;17.87;;;;;;;12.67;59.91;98388.06;7005905;28;20268;-82
2023/02/23 02:52:49;;;;;;;25.77;18.47;;;;;;;12.68;60.13;98384.28;7007484;28;20210;-82
2023/02/23 02:56:13;;;;;;;23.57;17.93;;;;;;;12.46;60.29;98369.59;7006509;28;20626;-80
2023/02/23 04:17:37;;;;;;;30.23;21.73;;;;;;;13.49;60.33;98374.56;7003420;28;20236;-81
2023/02/23 04:20:59;;;;;;;33.03;22.17;;;;;;;13.11;60.81;98362.47;7004180;28;20215;-81
2023/02/23 04:24:22;;;;;;;28.43;23.47;;;;;;;13.33;60.31;98387.97;7003756;28;20300;-81
2023/02/23 04:27:43;;;;;;;32.63;22.40;;;;;;;13.27;61.07;98384.28;7002475;28;20359;-82
2023/02/23 04:31:05;;;;;;;34.07;21.83;;;;;;;13.28;60.61;98385.13;7003310;28;20296;-81
2023/02/23 04:34:26;;;;;;;30.47;22.87;;;;;;;13.12;60.56;98342.47;7002449;28;20366;-82
2023/02/23 04:37:48;;;;;;;28.10;21.60;;;;;;;13.44;60.33;98379.84;7001095;28;20282;-82
2023/02/23 04:41:11;;;;;;;31.00;21.53;;;;;;;13.45;60.13;98384.19;7001815;28;20205;-82
2023/02/23 04:44:32;;;;;;;29.13;21.87;;;;;;;13.50;60.18;98384.31;7002340;28;20824;-81
2023/02/23 04:47:54;;;;;;;28.53;20.20;;;;;;;13.20;60.51;98385.44;7000406;28;20222;-81
2023/02/23 04:51:15;;;;;;;27.43;21.60;;;;;;;13.21;61.44;98395.22;7002121;28;20727;-81
2023/02/23 04:54:37;;;;;;;29.80;21.90;;;;;;;13.21;61.45;98385.22;7001463;28;20210;-82
2023/02/23 04:58:02;;;;;;;30.30;22.17;;;;;;;13.34;60.22;98349.00;6999853;28;20230;-81
2023/02/23 05:01:24;;;;;;;31.83;20.40;;;;;;;13.55;59.68;98378.19;7000650;28;20206;-81
2023/02/23 05:04:46;;;;;;;29.57;21.53;;;;;;;13.41;60.20;98393.03;7000127;28;20206;-81
2023/02/23 05:08:07;;;;;;;30.57;21.03;;;;;;;13.46;60.26;98382.31;6999478;28;20262;-81
2023/02/23 05:11:29;;;;;;;30.53;21.33;;;;;;;13.46;60.24;98388.53;6998875;28;20651;-81
2023/02/23 05:14:52;;;;;;;30.00;21.07;;;;;;;13.36;60.28;98390.19;6999804;28;20663;-81
2023/02/23 05:18:13;;;;;;;29.00;21.27;;;;;;;13.34;60.29;98390.41;6998957;28;20238;-82
2023/02/23 05:21:34;;;;;;;29.90;22.50;;;;;;;13.23;60.64;98396.63;6999268;28;20215;-82
2023/02/23 05:24:56;;;;;;;30.80;21.27;;;;;;;13.28;60.61;98393.25;7001814;28;20206;-80
2023/02/23 05:28:18;;;;;;;30.70;21.97;;;;;;;13.03;61.65;98373.63;7012828;28;20221;-81
2023/02/23 05:31:41;;;;;;;27.67;20.27;;;;;;;12.88;61.14;98354.25;7001904;28;20202;-81
2023/02/23 05:35:03;;;;;;;28.97;21.23;;;;;;;13.20;60.91;98383.56;6992332;28;20218;-83
2023/02/23 05:38:24;;;;;;;28.60;20.47;;;;;;;13.38;60.41;98397.03;6971084;28;20234;-82
2023/02/23 05:41:46;;;;;;;28.03;20.17;;;;;;;13.32;60.27;98387.13;6971716;28;20710;-81
2023/02/23 05:45:08;;;;;;;28.77;20.23;;;;;;;13.51;59.81;98396.78;6970764;28;20216;-81
2023/02/23 05:48:31;;;;;;;34.27;24.17;;;;;;;13.50;59.80;98392.44;6998127;28;20225;-81
2023/02/23 05:51:52;;;;;;;26.83;20.30;;;;;;;13.53;59.53;98393.88;7000680;28;20210;-81
2023/02/23 05:55:14;;;;;;;28.93;20.07;;;;;;;13.29;59.99;98403.81;6999913;28;20206;-81
2023/02/23 05:58:36;;;;;;;26.87;20.13;;;;;;;13.32;60.02;98406.06;7002732;28;20229;-81
2023/02/23 06:01:57;;;;;;;30.87;21.03;;;;;;;13.37;60.09;98400.78;7002722;28;20191;-81
2023/02/23 06:05:20;;;;;;;31.13;21.07;;;;;;;13.25;60.24;98380.16;7003059;28;20297;-81
2023/02/23 06:08:42;;;;;;;30.70;20.80;;;;;;;13.59;59.49;98388.34;6998543;28;20251;-80
2023/02/23 06:12:04;;;;;;;29.60;21.70;;;;;;;13.44;59.68;98393.38;7000884;28;20212;-82
2023/02/23 06:15:25;;;;;;;27.77;20.10;;;;;;;13.18;60.19;98371.31;7001844;28;20266;-82
2023/02/23 06:18:47;;;;;;;30.37;22.17;;;;;;;13.24;59.85;98401.00;7001322;28;20283;-81
2023/02/23 06:22:10;;;;;;;28.80;20.83;;;;;;;13.48;59.94;98412.69;7001801;28;20302;-81
2023/02/23 06:25:31;;;;;;;31.73;21.37;;;;;;;13.19;60.50;98405.44;7005525;28;20210;-80
2023/02/23 06:28:53;;;;;;;33.50;22.37;;;;;;;13.18;60.57;98414.63;7003859;28;20225;-81
2023/02/23 06:32:14;;;;;;;27.87;20.97;;;;;;;13.51;60.03;98423.88;7006586;28;20601;-81
2023/02/23 06:35:36;;;;;;;28.57;21.73;;;;;;;13.34;60.13;98422.09;7005902;28;20294;-82
2023/02/23 06:38:59;;;;;;;28.70;20.63;;;;;;;13.40;60.11;98426.59;7003241;28;20373;-81
2023/02/23 06:42:20;;;;;;;31.20;22.67;;;;;;;13.35;60.30;98423.75;7004827;28;20374;-81
2023/02/23 06:45:42;;;;;;;27.73;20.47;;;;;;;13.59;60.02;98418.16;7004552;28;20283;-81
2023/02/23 06:49:04;;;;;;;26.27;20.67;;;;;;;13.20;59.82;98367.31;7004016;28;20257;-83
2023/02/23 06:52:25;;;;;;;27.60;20.70;;;;;;;13.48;60.14;98427.06;7003066;28;20563;-81
2023/02/23 06:55:48;;;;;;;27.93;20.23;;;;;;;13.71;59.63;98434.41;6988435;28;20241;-82
2023/02/23 06:59:10;;;;;;;29.30;20.63;;;;;;;13.65;59.30;98441.59;6980931;28;20231;-81
2023/02/23 07:02:31;;;;;;;33.07;21.67;;;;;;;12.91;61.37;98448.47;6981460;28;20206;-80
2023/02/23 07:05:53;;;;;;;32.27;22.43;;;;;;;13.09;61.43;98434.97;6979973;28;20197;-77
2023/02/23 07:09:15;;;;;;;33.13;22.73;;;;;;;13.22;61.39;98442.91;6982875;28;20219;-81
2023/02/23 07:12:38;;;;;;;36.00;24.77;;;;;;;13.23;61.27;98450.75;6984310;28;20237;-81
2023/02/23 07:15:59;;;;;;;34.07;26.17;;;;;;;13.60;60.68;98451.47;6977848;28;20293;-81
2023/02/23 07:19:22;;;;;;;35.97;24.80;;;;;;;13.79;60.01;98455.72;6976804;28;20287;-80
2023/02/23 07:22:43;;;;;;;32.80;23.40;;;;;;;13.63;60.17;98456.44;6992088;28;20206;-79
2023/02/23 07:26:05;;;;;;;35.27;26.33;;;;;;;13.61;60.11;98456.66;7003456;28;20297;-80
2023/02/23 07:29:28;;;;;;;34.83;25.00;;;;;;;13.39;60.32;98403.28;7000776;28;20218;-81
2023/02/23 07:32:49;;;;;;;33.53;25.47;;;;;;;13.78;60.00;98457.63;6989188;28;20234;-80
2023/02/23 07:36:11;;;;;;;30.60;24.70;;;;;;;13.61;60.17;98445.81;6985474;28;20228;-80
2023/02/23 07:39:33;;;;;;;33.47;23.53;;;;;;;13.51;60.65;98461.81;6988766;28;20316;-81
2023/02/23 07:42:55;;;;;;;35.97;25.27;;;;;;;13.64;60.85;98463.50;6993720;28;20667;-80
2023/02/23 07:46:18;;;;;;;36.17;26.17;;;;;;;13.64;61.01;98466.19;7001623;28;20211;-80
2023/02/23 07:49:39;;;;;;;37.57;25.60;;;;;;;13.79;60.26;98461.13;7002020;28;20219;-82
2023/02/23 07:53:01;;;;;;;39.27;26.67;;;;;;;13.73;60.64;98453.94;7004175;28;20300;-80
2023/02/23 07:56:23;;;;;;;37.10;27.30;;;;;;;13.89;60.49;98461.41;7002082;28;20198;-79
2023/02/23 07:59:45;;;;;;;36.93;25.37;;;;;;;13.80;60.58;98465.53;7002772;28;20330;-81
2023/02/23 08:03:07;;;;;;;36.70;25.13;;;;;;;13.76;61.34;98475.97;7002090;28;20245;-82
2023/02/23 08:06:30;;;;;;;36.47;25.17;;;;;;;14.00;61.02;98474.13;6999861;28;20268;-82
2023/02/23 08:09:52;;;;;;;37.93;26.77;;;;;;;14.12;60.45;98478.50;7002659;28;20353;-82
2023/02/23 08:13:14;;;;;;;36.67;25.47;;;;;;;14.06;60.61;98482.16;7005074;28;20298;-79
2023/02/23 08:16:36;;;;;;;39.47;25.47;;;;;;;13.81;61.24;98488.84;7001220;28;20692;-82
2023/02/23 08:19:59;;;;;;;36.40;25.50;;;;;;;14.13;60.54;98474.75;7000407;28;20743;-79
2023/02/23 08:23:20;;;;;;;36.50;25.37;;;;;;;14.13;61.00;98488.28;6987547;28;20204;-81
2023/02/23 08:26:42;;;;;;;37.27;25.23;;;;;;;13.98;61.14;98449.16;6972933;28;20296;-81
2023/02/23 08:30:05;;;;;;;34.80;24.97;;;;;;;14.44;60.64;98485.25;7013711;28;20375;-79
2023/02/23 08:33:26;;;;;;;36.33;25.07;;;;;;;14.35;60.57;98483.13;7027456;28;20732;-82
2023/02/23 08:36:49;;;;;;;29.53;23.27;;;;;;;14.09;60.11;98419.34;7010931;28;20288;-81
2023/02/23 08:40:14;;;;;;;33.60;23.03;;;;;;;14.32;60.68;98480.88;6988288;28;20270;-80
2023/02/23 08:43:38;;;;;;;33.80;23.80;;;;;;;14.55;60.81;98470.84;6976661;28;20323;-81
2023/02/23 08:47:00;;;;;;;34.37;24.40;;;;;;;14.72;60.27;98481.78;6997324;28;20213;-82
2023/02/23 08:50:21;;;;;;;34.33;23.93;;;;;;;14.94;59.38;98480.91;6999955;28;20235;-82
2023/02/23 08:53:44;;;;;;;28.53;22.53;;;;;;;15.01;58.85;98456.31;7002837;28;20243;-80
2023/02/23 08:57:05;;;;;;;34.50;23.33;;;;;;;15.25;57.74;98476.91;7001927;28;20209;-80
2023/02/23 09:00:27;;;;;;;26.83;20.53;;;;;;;15.29;57.68;98481.59;6998978;28;20315;-79
2023/02/23 09:03:49;;;;;;;30.33;21.80;;;;;;;14.87;57.94;98452.25;6995823;28;20188;-80
2023/02/23 09:07:15;;;;;;;26.00;19.27;;;;;;;15.33;57.69;98484.72;6996014;28;20216;-80
2023/02/23 09:10:38;;;;;;;25.50;19.67;;;;;;;15.26;57.36;98462.25;6998398;28;20346;-81
2023/02/23 09:13:59;;;;;;;29.00;20.27;;;;;;;15.27;57.26;98493.78;7003646;28;20300;-82
2023/02/23 09:17:21;;;;;;;31.90;21.73;;;;;;;15.19;58.18;98489.56;6988295;28;20250;-81
2023/02/23 09:20:44;;;;;;;27.97;21.00;;;;;;;14.95;59.31;98493.44;6973229;28;20621;-80
2023/02/23 09:24:07;;;;;;;28.30;20.47;;;;;;;15.25;58.81;98483.16;6969833;28;20296;-79
2023/02/23 09:27:29;;;;;;;26.70;20.03;;;;;;;15.26;58.33;98482.09;6989211;28;20310;-79
2023/02/23 09:30:51;;;;;;;26.17;19.13;;;;;;;15.43;58.15;98491.16;6988780;28;20382;-83
2023/02/23 09:34:12;;;;;;;24.47;20.03;;;;;;;15.58;57.76;98482.44;6999861;28;20257;-81
2023/02/23 09:37:34;;;;;;;26.30;20.77;;;;;;;15.36;58.09;98489.63;7002313;28;20318;-83
2023/02/23 09:40:55;;;;;;;26.43;20.13;;;;;;;15.17;58.61;98452.84;7002986;28;20694;-82
2023/02/23 09:44:25;;;;;;;27.67;19.17;;;;;;;15.42;58.20;98489.50;7003058;28;20303;-81
2023/02/23 09:47:55;;;;;;;21.90;16.90;;;;;;;15.87;57.09;98470.47;6992674;28;20224;-82
2023/02/23 09:51:19;;;;;;;21.27;17.23;;;;;;;15.93;56.80;98478.44;7002874;28;20325;-84
2023/02/23 09:54:41;;;;;;;25.87;17.17;;;;;;;15.91;56.74;98479.75;7004841;28;20538;-82
2023/02/23 09:58:06;;;;;;;25.63;18.93;;;;;;;16.42;56.10;98479.50;7000293;28;20226;-83
2023/02/23 10:01:52;;;;;;;24.63;18.77;;;;;;;16.34;55.36;98464.38;7001826;28;20343;-81
2023/02/23 10:05:15;;;;;;;19.90;16.37;;;;;;;16.04;56.07;98430.50;7006631;28;20381;-81
2023/02/23 10:08:48;;;;;;;22.93;17.17;;;;;;;16.48;55.28;98478.50;7004351;28;20314;-83
2023/02/23 10:12:14;;;;;;;24.73;16.13;;;;;;;16.87;53.79;98486.41;7011365;28;20826;-82
2023/02/23 10:15:40;;;;;;;21.33;15.33;;;;;;;16.64;54.10;98478.47;6987811;28;20200;-83
2023/02/23 10:19:07;;;;;;;19.90;14.77;;;;;;;17.34;52.82;98475.81;6977295;28;20385;-81
2023/02/23 10:22:29;;;;;;;19.40;13.93;;;;;;;16.90;52.90;98474.19;6992922;28;20227;-81
2023/02/23 10:25:52;;;;;;;13.00;11.17;;;;;;;17.45;52.25;98475.69;7009322;28;20290;-80
2023/02/23 10:29:22;;;;;;;13.57;10.57;;;;;;;17.87;50.33;98460.25;7005228;28;20251;-82
2023/02/23 10:32:48;;;;;;;18.93;12.97;;;;;;;17.94;50.40;98451.88;7009828;28;20366;-81
2023/02/23 10:36:14;;;;;;;15.37;10.87;;;;;;;18.00;50.63;98475.38;7009923;28;20223;-80
2023/02/23 10:39:36;;;;;;;13.00;10.23;;;;;;;17.70;49.77;98382.41;7011557;28;20374;-82
2023/02/23 10:42:58;;;;;;;13.33;10.73;;;;;;;18.41;49.37;98474.63;7011116;28;20220;-82
2023/02/23 10:46:22;;;;;;;11.17;8.77;;;;;;;18.35;48.49;98476.50;7015741;28;20655;-82
2023/02/23 10:49:46;;;;;;;11.00;7.73;;;;;;;18.33;48.62;98475.94;7009153;28;20315;-79
2023/02/23 10:53:15;;;;;;;9.67;7.17;;;;;;;18.40;47.60;98467.53;7009304;28;20278;-78
2023/02/23 10:56:44;;;;;;;7.60;6.50;;;;;;;18.23;48.53;98473.09;7006844;28;20197;-80
2023/02/23 11:00:31;;;;;;;12.97;7.87;;;;;;;18.40;48.87;98478.47;7005523;28;20293;-80
2023/02/23 11:03:53;;;;;;;10.63;7.77;;;;;;;18.45;48.29;98468.38;7004531;28;20217;-81
2023/02/23 11:07:16;;;;;;;12.53;6.77;;;;;;;18.49;47.91;98479.59;7010099;28;20210;-81
2023/02/23 11:10:40;;;;;;;9.17;7.40;;;;;;;18.33;48.13;98472.41;7005852;28;20252;-81
2023/02/23 11:14:16;;;;;;;8.57;6.63;;;;;;;17.64;49.12;98465.25;7008135;28;20269;-81
2023/02/23 11:17:38;;;;;;;10.00;6.60;;;;;;;17.60;49.29;98450.47;7007284;28;20263;-79
2023/02/23 11:21:00;;;;;;;9.23;6.83;;;;;;;17.81;49.01;98468.69;7003583;28;20323;-79
2023/02/23 11:24:24;;;;;;;10.70;7.00;;;;;;;18.02;48.91;98463.13;6984610;28;20202;-80
2023/02/23 11:27:52;;;;;;;12.00;7.30;;;;;;;17.66;49.36;98453.00;6987529;28;20347;-81
2023/02/23 11:31:16;;;;;;;11.53;7.23;;;;;;;17.35;49.91;98452.91;7010387;28;20204;-81
2023/02/23 11:34:42;;;;;;;9.60;7.33;;;;;;;17.47;50.27;98457.19;7007385;28;20293;-81
2023/02/23 11:38:15;;;;;;;9.07;7.00;;;;;;;17.60;50.16;98443.13;7002036;28;20233;-80
2023/02/23 11:41:37;;;;;;;11.37;6.90;;;;;;;17.28;51.13;98444.13;7007528;28;20209;-82
2023/02/23 11:45:05;;;;;;;13.40;7.53;;;;;;;17.79;49.87;98438.94;6988680;28;20705;-81
2023/02/23 11:48:28;;;;;;;11.13;6.97;;;;;;;17.64;49.68;98433.31;6976542;28;20708;-81
2023/02/23 11:51:53;;;;;;;7.67;6.30;;;;;;;17.22;50.43;98445.16;6974125;28;20202;-81
2023/02/23 11:55:17;;;;;;;7.00;5.43;;;;;;;17.66;49.31;98433.91;6976819;28;20202;-81
2023/02/23 11:58:41;;;;;;;6.30;5.17;;;;;;;17.95;47.69;98380.69;6980080;28;20319;-81
2023/02/23 12:02:06;;;;;;;6.83;5.20;;;;;;;18.31;47.43;98419.94;6985256;28;20204;-80
2023/02/23 12:05:29;;;;;;;9.47;5.20;;;;;;;18.56;45.42;98401.81;7002936;28;20206;-81
2023/02/23 12:08:53;;;;;;;7.90;5.40;;;;;;;18.51;46.60;98420.91;6999468;28;20295;-82
2023/02/23 12:12:17;;;;;;;8.47;5.10;;;;;;;18.40;46.49;98426.59;7001033;28;20229;-81
2023/02/23 12:15:47;;;;;;;7.57;5.20;;;;;;;18.44;45.30;98425.78;7012678;28;20202;-81
2023/02/23 12:19:21;;;;;;;7.53;4.80;;;;;;;18.90;45.24;98415.91;6974654;28;20308;-81
2023/02/23 12:22:46;;;;;;;8.57;4.43;;;;;;;19.34;44.02;98408.97;6995385;28;20205;-82
2023/02/23 12:26:11;;;;;;;5.47;4.47;;;;;;;18.61;45.20;98409.22;7003595;28;20209;-81
2023/02/23 12:29:36;;;;;;;6.27;4.50;;;;;;;18.67;44.25;98397.22;7002714;28;20274;-81
2023/02/23 12:33:02;;;;;;;9.80;4.10;;;;;;;18.47;42.58;98353.47;7007203;28;20285;-82
2023/02/23 12:36:28;;;;;;;5.90;3.93;;;;;;;19.24;42.54;98396.09;7005083;28;20251;-82
2023/02/23 12:39:54;;;;;;;7.17;3.83;;;;;;;19.65;41.91;98396.97;7006717;28;20233;-80
2023/02/23 12:43:19;;;;;;;6.90;3.50;;;;;;;19.21;41.64;98352.91;7009644;28;20709;-80
2023/02/23 12:46:47;;;;;;;6.43;3.83;;;;;;;19.08;42.43;98394.38;6999369;28;20662;-81
2023/02/23 12:50:12;;;;;;;5.73;3.83;;;;;;;19.49;41.48;98389.84;6999450;28;20689;-82
2023/02/23 12:53:38;;;;;;;9.20;4.57;;;;;;;19.88;41.29;98390.94;7000174;28;20212;-82
2023/02/23 12:57:07;;;;;;;6.17;4.53;;;;;;;19.51;40.94;98387.66;6998968;28;20213;-81
2023/02/23 13:00:42;;;;;;;4.87;3.40;;;;;;;19.88;40.16;98358.91;6996628;28;20225;-81
2023/02/23 13:04:13;;;;;;;7.83;3.90;;;;;;;19.60;40.94;98380.53;7001916;28;20194;-81
2023/02/23 13:07:41;;;;;;;6.03;3.47;;;;;;;18.60;41.01;98353.78;7002186;28;20233;-82
2023/02/23 13:11:10;;;;;;;6.43;3.47;;;;;;;19.45;40.70;98375.09;7001134;28;20220;-81
2023/02/23 13:14:39;;;;;;;6.13;3.27;;;;;;;19.66;40.39;98366.63;6999204;28;20343;-85
2023/02/23 13:18:06;;;;;;;6.20;3.07;;;;;;;19.01;40.91;98377.44;6998345;28;20359;-84
2023/02/23 13:21:30;;;;;;;6.53;3.50;;;;;;;19.03;41.86;98367.03;6999309;28;20214;-81
2023/02/23 13:24:54;;;;;;;4.20;3.17;;;;;;;19.10;41.29;98373.06;7001142;28;20305;-81
2023/02/23 13:28:20;;;;;;;6.80;3.37;;;;;;;19.32;41.16;98372.84;6993936;28;20375;-82
2023/02/23 13:31:43;;;;;;;6.93;3.40;;;;;;;19.23;41.12;98360.84;6970508;28;20325;-82
2023/02/23 13:35:07;;;;;;;5.87;3.40;;;;;;;19.19;41.05;98357.78;6977619;28;20221;-81
2023/02/23 13:38:36;;;;;;;6.03;3.10;;;;;;;19.35;40.91;98366.88;6989889;28;20242;-83
2023/02/23 13:42:08;;;;;;;7.60;3.57;;;;;;;18.94;41.75;98352.28;6979315;28;20355;-81
2023/02/23 13:45:49;;;;;;;6.23;3.53;;;;;;;19.12;41.70;98326.34;6975720;28;20584;-80
2023/02/23 13:49:20;;;;;;;3.97;3.53;;;;;;;19.19;42.14;98357.78;6997187;28;20308;-81
2023/02/23 13:52:43;;;;;;;7.23;3.17;;;;;;;19.10;42.38;98359.41;6998638;28;20201;-81
2023/02/23 13:56:07;;;;;;;7.87;5.40;;;;;;;19.19;42.23;98349.59;6998325;28;20776;-81
2023/02/23 13:59:32;;;;;;;6.87;4.03;;;;;;;18.72;42.46;98364.47;6997813;28;20232;-80
2023/02/23 14:02:55;;;;;;;8.97;4.07;;;;;;;19.44;41.58;98352.38;6988211;28;20187;-84
2023/02/23 14:06:18;;;;;;;7.80;4.07;;;;;;;19.08;42.41;98344.34;6973446;28;20388;-82
2023/02/23 14:09:43;;;;;;;5.90;3.63;;;;;;;18.67;42.27;98326.22;6969797;28;20227;-82
2023/02/23 14:13:08;;;;;;;6.73;3.47;;;;;;;19.32;41.32;98342.78;6969333;28;20635;-82
2023/02/23 14:16:29;;;;;;;6.93;3.67;;;;;;;18.77;42.29;98323.53;6975205;28;20229;-81
2023/02/23 14:20:06;;;;;;;6.53;4.33;;;;;;;18.79;42.64;98349.50;6997091;28;20726;-81
2023/02/23 14:23:30;;;;;;;4.83;3.70;;;;;;;19.30;42.12;98343.09;6966580;28;20297;-81
2023/02/23 14:27:34;;;;;;;7.13;4.70;;;;;;;19.23;42.83;98338.97;6964819;28;20279;-80
2023/02/23 14:31:01;;;;;;;6.13;4.70;;;;;;;19.23;41.60;98304.22;6978230;28;20193;-82
2023/02/23 14:34:23;;;;;;;11.43;5.20;;;;;;;19.38;42.29;98344.44;6976968;28;20234;-83
2023/02/23 14:37:55;;;;;;;7.70;3.80;;;;;;;18.67;42.58;98350.78;6972604;28;20250;-82
2023/02/23 14:41:21;;;;;;;10.27;4.23;;;;;;;18.79;42.36;98344.03;6974393;28;20217;-84
2023/02/23 14:44:44;;;;;;;5.80;3.63;;;;;;;18.80;42.14;98339.41;6975842;28;20303;-83
2023/02/23 14:48:08;;;;;;;8.87;4.87;;;;;;;18.65;40.99;98337.44;6994879;28;20268;-83
2023/02/23 14:51:40;;;;;;;7.77;4.37;;;;;;;18.88;41.32;98355.25;7005413;28;20571;-83
2023/02/23 14:55:17;;;;;;;8.10;5.07;;;;;;;19.27;40.98;98351.00;7004587;28;20205;-83
2023/02/23 14:58:38;;;;;;;7.57;4.37;;;;;;;18.92;41.58;98346.25;7004533;28;20649;-82
2023/02/23 15:02:00;;;;;;;9.80;4.23;;;;;;;18.34;42.70;98346.56;7004787;28;20318;-81
2023/02/23 15:05:24;;;;;;;6.63;4.30;;;;;;;18.72;42.06;98353.56;6986289;28;20213;-83
2023/02/23 15:08:46;;;;;;;7.23;3.80;;;;;;;18.60;41.63;98355.69;6973222;28;20323;-83
2023/02/23 15:12:18;;;;;;;8.60;5.10;;;;;;;18.98;41.21;98333.44;6973860;28;20937;-84
2023/02/23 15:15:44;;;;;;;9.50;3.43;;;;;;;18.23;42.00;98331.19;6973481;28;20627;-83
2023/02/23 15:19:05;;;;;;;5.30;3.43;;;;;;;18.65;41.65;98351.09;6997994;28;20371;-83
2023/02/23 15:22:28;;;;;;;10.87;5.20;;;;;;;18.47;42.47;98358.91;6999635;28;20685;-83
2023/02/23 15:25:51;;;;;;;5.07;3.70;;;;;;;18.19;42.88;98362.84;6997234;28;20300;-83
2023/02/23 15:29:15;;;;;;;4.70;3.70;;;;;;;18.80;41.52;98340.19;7000822;28;20690;-83
2023/02/23 15:32:37;;;;;;;7.33;3.87;;;;;;;18.41;42.33;98368.19;6996200;28;20608;-82
2023/02/23 15:36:05;;;;;;;6.00;3.70;;;;;;;18.21;42.96;98359.84;7001685;28;20210;-83
2023/02/23 15:39:34;;;;;;;5.00;3.80;;;;;;;18.65;42.13;98361.19;7001042;28;20568;-82
2023/02/23 15:42:59;;;;;;;5.43;3.73;;;;;;;18.46;42.53;98363.53;7006603;28;20213;-82
2023/02/23 15:46:24;;;;;;;4.30;3.63;;;;;;;17.61;44.23;98332.16;6983635;28;20271;-82
2023/02/23 15:49:46;;;;;;;8.67;4.50;;;;;;;17.68;44.81;98366.31;6980876;28;20284;-82
2023/02/23 15:53:13;;;;;;;8.73;4.43;;;;;;;18.17;44.24;98372.38;6996345;28;20295;-82
2023/02/23 15:56:35;;;;;;;4.97;4.30;;;;;;;18.42;43.81;98373.38;7007102;28;20201;-81
2023/02/23 15:59:58;;;;;;;7.33;4.30;;;;;;;18.32;44.50;98362.41;7004998;28;20593;-84
2023/02/23 16:03:26;;;;;;;7.93;4.30;;;;;;;18.37;44.39;98365.16;6998310;28;20251;-83
2023/02/23 16:06:52;;;;;;;9.90;4.20;;;;;;;18.01;44.89;98355.09;6976122;28;20281;-81
2023/02/23 16:10:21;;;;;;;7.00;4.50;;;;;;;17.82;45.00;98377.59;6980883;28;20309;-81
2023/02/23 16:13:43;;;;;;;9.07;4.57;;;;;;;18.02;44.99;98366.81;6986077;28;20201;-81
2023/02/23 16:17:05;;;;;;;8.07;4.53;;;;;;;17.96;44.65;98376.88;7007275;28;20281;-81
2023/02/23 16:20:33;;;;;;;10.37;4.57;;;;;;;18.04;44.66;98381.03;7006956;28;20229;-82
2023/02/23 16:23:57;;;;;;;7.77;3.70;;;;;;;17.66;45.25;98373.09;6993484;28;20218;-83
2023/02/23 16:27:21;;;;;;;9.07;4.80;;;;;;;17.68;45.54;98379.94;6970031;28;20225;-82
2023/02/23 16:30:44;;;;;;;7.90;4.30;;;;;;;17.71;45.89;98375.88;6972066;28;20731;-83
2023/02/23 16:34:19;;;;;;;9.43;4.97;;;;;;;17.99;45.40;98381.78;6995062;28;20681;-82
2023/02/23 16:38:01;;;;;;;9.53;5.27;;;;;;;18.04;45.04;98376.38;6979466;28;20343;-82
2023/02/23 16:41:24;;;;;;;6.50;4.40;;;;;;;17.71;46.13;98376.69;6977058;28;20212;-83
2023/02/23 16:44:47;;;;;;;6.67;4.50;;;;;;;17.87;45.97;98380.38;6975088;28;20280;-83
2023/02/23 16:48:12;;;;;;;8.80;5.30;;;;;;;17.37;46.77;98374.44;6975189;28;20228;-83
2023/02/23 16:51:34;;;;;;;7.73;4.47;;;;;;;17.62;46.60;98383.69;7001357;28;20189;-83
2023/02/23 16:54:58;;;;;;;11.10;4.93;;;;;;;17.59;46.82;98367.03;7000335;28;20217;-82
2023/02/23 16:58:23;;;;;;;6.27;4.17;;;;;;;17.47;47.02;98366.41;6974072;28;20773;-83
2023/02/23 17:01:46;;;;;;;7.73;5.30;;;;;;;17.72;46.81;98378.34;6972364;28;20340;-83
2023/02/23 17:05:12;;;;;;;11.43;6.50;;;;;;;17.56;46.61;98378.44;6969735;28;20209;-84
2023/02/23 17:08:34;;;;;;;7.17;5.70;;;;;;;17.85;46.26;98366.97;6968952;28;20290;-83